createdAt,value
2022-09-30T00:01:26.871Z,100.00
2022-09-30T00:03:55.502Z,100.00
2022-09-30T00:06:23.579Z,100.00
2022-09-30T00:08:51.111Z,100.00
2022-09-30T00:11:23.302Z,100.00
2022-09-30T00:13:51.387Z,100.00
2022-09-30T00:16:21.473Z,100.00
2022-09-30T00:18:49.363Z,100.00
2022-09-30T00:21:17.484Z,100.00
2022-09-30T00:23:45.620Z,100.00
2022-09-30T00:26:14.740Z,100.00
2022-09-30T00:28:42.747Z,100.00
2022-09-30T00:31:15.239Z,100.00
2022-09-30T00:33:46.636Z,100.00
2022-09-30T00:36:14.504Z,100.00
2022-09-30T00:38:42.037Z,100.00
2022-09-30T00:41:09.508Z,100.00
2022-09-30T00:43:53.644Z,100.00
2022-09-30T00:46:27.439Z,100.00
2022-09-30T00:48:57.474Z,100.00
2022-09-30T00:51:30.203Z,100.00
2022-09-30T00:54:00.835Z,100.00
2022-09-30T00:56:48.589Z,100.00
2022-09-30T00:59:22.002Z,100.00
2022-09-30T01:01:49.661Z,100.00
2022-09-30T01:04:22.748Z,100.00
2022-09-30T01:06:50.981Z,100.00
2022-09-30T01:09:19.589Z,100.00
2022-09-30T01:11:48.386Z,100.00
2022-09-30T01:14:16.001Z,100.00
2022-09-30T01:16:46.790Z,100.00
2022-09-30T01:19:36.383Z,100.00
2022-09-30T01:22:10.170Z,100.00
2022-09-30T01:24:58.155Z,100.00
2022-09-30T01:27:35.231Z,100.00
2022-09-30T01:30:15.003Z,100.00
2022-09-30T01:32:52.369Z,100.00
2022-09-30T01:35:34.780Z,100.00
2022-09-30T01:38:07.486Z,100.00
2022-09-30T01:40:44.450Z,100.00
2022-09-30T01:43:18.599Z,100.00
2022-09-30T01:45:57.094Z,100.00
2022-09-30T01:48:35.431Z,100.00
2022-09-30T01:51:08.218Z,100.00
2022-09-30T01:53:36.289Z,100.00
2022-09-30T01:56:11.990Z,100.00
2022-09-30T01:59:05.897Z,100.00
2022-09-30T02:01:36.351Z,100.00
2022-09-30T02:04:07.746Z,100.00
2022-09-30T02:06:41.941Z,100.00
2022-09-30T02:09:12.752Z,100.00
2022-09-30T02:11:41.318Z,100.00
2022-09-30T02:14:26.523Z,100.00
2022-09-30T02:17:23.755Z,100.00
2022-09-30T02:20:00.648Z,100.00
2022-09-30T02:22:31.693Z,100.00
2022-09-30T02:25:04.288Z,100.00
2022-09-30T02:27:42.608Z,100.00
2022-09-30T02:30:12.208Z,100.00
2022-09-30T02:32:45.517Z,100.00
2022-09-30T02:35:17.534Z,100.00
2022-09-30T02:37:50.611Z,100.00
2022-09-30T02:40:26.951Z,100.00
2022-09-30T02:42:55.406Z,100.00
2022-09-30T02:45:24.412Z,100.00
2022-09-30T02:48:10.866Z,100.00
2022-09-30T02:50:44.141Z,100.00
2022-09-30T02:53:17.613Z,100.00
2022-09-30T02:55:56.101Z,100.00
2022-09-30T02:58:26.486Z,100.00
2022-09-30T03:00:55.324Z,100.00
2022-09-30T03:03:41.449Z,100.00
2022-09-30T03:06:10.160Z,100.00
2022-09-30T03:08:37.680Z,100.00
2022-09-30T03:11:06.227Z,100.00
2022-09-30T03:13:40.273Z,100.00
2022-09-30T03:19:08.074Z,100.00
2022-09-30T03:21:53.631Z,100.00
2022-09-30T03:24:40.177Z,100.00
2022-09-30T03:27:37.045Z,100.00
2022-09-30T03:30:10.237Z,100.00
2022-09-30T03:32:40.512Z,100.00
2022-09-30T03:35:22.082Z,100.00
2022-09-30T03:38:01.997Z,100.00
2022-09-30T03:40:42.148Z,100.00
2022-09-30T03:43:22.028Z,100.00
2022-09-30T03:46:01.528Z,100.00
2022-09-30T03:48:30.771Z,100.00
2022-09-30T03:50:59.582Z,100.00
2022-09-30T03:53:28.819Z,100.00
2022-09-30T03:55:56.351Z,100.00
2022-09-30T03:58:24.278Z,100.00
2022-09-30T04:00:57.391Z,100.00
2022-09-30T04:03:28.175Z,100.00
2022-09-30T04:05:55.892Z,100.00
2022-09-30T04:08:23.461Z,100.00
2022-09-30T04:10:51.609Z,100.00
2022-09-30T04:13:19.120Z,100.00
2022-09-30T04:15:53.359Z,100.00
2022-09-30T04:18:21.155Z,100.00
2022-09-30T04:20:48.613Z,100.00
2022-09-30T04:23:16.382Z,100.00
2022-09-30T04:25:44.256Z,100.00
2022-09-30T04:28:11.784Z,100.00
2022-09-30T04:30:41.497Z,100.00
2022-09-30T04:33:09.439Z,100.00
2022-09-30T04:38:24.863Z,100.00
2022-09-30T04:40:52.887Z,100.00
2022-09-30T04:43:20.769Z,100.00
2022-09-30T04:48:33.661Z,100.00
2022-09-30T04:51:01.547Z,100.00
2022-09-30T04:53:29.610Z,100.00
2022-09-30T04:58:47.070Z,98.80
2022-09-30T05:01:15.900Z,99.58
2022-09-30T05:03:44.114Z,100.00
2022-09-30T05:06:12.204Z,100.00
2022-09-30T05:08:44.721Z,100.00
2022-09-30T05:11:15.308Z,95.94
2022-09-30T05:13:43.070Z,95.73
2022-09-30T05:16:11.249Z,95.16
2022-09-30T05:18:41.201Z,99.08
2022-09-30T05:21:08.737Z,95.93
2022-09-30T05:23:36.321Z,93.43
2022-09-30T05:26:07.449Z,95.29
2022-09-30T05:28:37.535Z,94.05
2022-09-30T05:31:06.893Z,94.87
2022-09-30T05:33:35.357Z,92.65
2022-09-30T05:36:03.998Z,87.70
2022-09-30T05:38:32.004Z,87.58
2022-09-30T05:40:59.447Z,90.84
2022-09-30T05:43:27.115Z,93.26
2022-09-30T05:45:55.920Z,86.33
2022-09-30T05:48:23.979Z,89.27
2022-09-30T05:50:55.514Z,89.95
2022-09-30T05:53:24.219Z,87.39
2022-09-30T05:55:52.450Z,90.20
2022-09-30T05:58:20.839Z,88.37
2022-09-30T06:00:49.388Z,89.97
2022-09-30T06:03:18.536Z,90.46
2022-09-30T06:05:46.316Z,88.82
2022-09-30T06:08:15.070Z,93.86
2022-09-30T06:10:44.507Z,87.33
2022-09-30T06:13:12.031Z,83.68
2022-09-30T06:15:41.656Z,78.09
2022-09-30T06:18:10.914Z,79.93
2022-09-30T06:20:40.274Z,78.51
2022-09-30T06:23:07.811Z,81.98
2022-09-30T06:25:35.670Z,76.71
2022-09-30T06:28:03.128Z,75.85
2022-09-30T06:30:34.919Z,76.20
2022-09-30T06:33:03.361Z,76.95
2022-09-30T06:35:30.992Z,77.28
2022-09-30T06:37:58.510Z,77.64
2022-09-30T06:40:26.455Z,78.32
2022-09-30T06:42:58.851Z,79.82
2022-09-30T06:45:32.666Z,79.55
2022-09-30T06:48:01.628Z,78.70
2022-09-30T06:50:33.403Z,80.05
2022-09-30T06:53:01.589Z,79.38
2022-09-30T06:55:30.217Z,76.65
2022-09-30T06:57:58.001Z,76.00
2022-09-30T07:00:27.531Z,77.21
2022-09-30T07:02:57.020Z,75.48
2022-09-30T07:05:26.023Z,76.32
2022-09-30T07:07:53.958Z,74.93
2022-09-30T07:10:22.219Z,74.05
2022-09-30T07:12:51.333Z,73.48
2022-09-30T07:15:23.623Z,72.45
2022-09-30T07:17:52.496Z,71.61
2022-09-30T07:20:20.048Z,71.39
2022-09-30T07:22:47.956Z,73.26
2022-09-30T07:25:18.973Z,72.54
2022-09-30T07:27:47.054Z,72.45
2022-09-30T07:30:24.007Z,72.02
2022-09-30T07:32:54.849Z,72.21
2022-09-30T07:35:22.388Z,71.34
2022-09-30T07:37:50.696Z,71.88
2022-09-30T07:40:18.605Z,70.74
2022-09-30T07:42:46.311Z,70.84
2022-09-30T07:45:19.657Z,71.38
2022-09-30T07:47:51.151Z,70.63
2022-09-30T07:50:21.481Z,71.05
2022-09-30T07:52:49.348Z,70.24
2022-09-30T07:55:16.860Z,68.98
2022-09-30T07:57:44.310Z,68.01
2022-09-30T08:00:37.908Z,67.95
2022-09-30T08:03:00.467Z,67.15
2022-09-30T08:05:28.030Z,66.70
2022-09-30T08:07:55.586Z,66.31
2022-09-30T08:10:23.878Z,66.14
2022-09-30T08:12:54.396Z,68.27
2022-09-30T08:15:24.082Z,67.41
2022-09-30T08:17:51.544Z,66.86
2022-09-30T08:20:22.453Z,67.24
2022-09-30T08:22:54.713Z,68.66
2022-09-30T08:25:47.562Z,68.41
2022-09-30T08:28:15.999Z,67.55
2022-09-30T08:30:43.607Z,68.03
2022-09-30T08:33:11.085Z,68.32
2022-09-30T08:35:38.930Z,69.23
2022-09-30T08:38:06.905Z,69.65
2022-09-30T08:40:39.197Z,68.46
2022-09-30T08:43:16.321Z,69.54
2022-09-30T08:45:54.002Z,68.33
2022-09-30T08:48:41.065Z,70.25
2022-09-30T08:51:25.555Z,67.48
2022-09-30T08:53:57.769Z,68.19
2022-09-30T08:56:27.799Z,69.06
2022-09-30T08:59:15.354Z,68.40
2022-09-30T09:01:48.492Z,70.45
2022-09-30T09:04:17.431Z,69.84
2022-09-30T09:07:03.468Z,68.47
2022-09-30T09:09:58.002Z,71.40
2022-09-30T09:12:30.551Z,71.92
2022-09-30T09:14:58.427Z,72.10
2022-09-30T09:17:25.897Z,72.44
2022-09-30T09:19:59.353Z,71.20
2022-09-30T09:22:28.607Z,70.64
2022-09-30T09:24:56.814Z,70.38
2022-09-30T09:27:33.739Z,71.20
2022-09-30T09:30:16.097Z,70.60
2022-09-30T09:32:50.059Z,71.14
2022-09-30T09:35:37.773Z,69.18
2022-09-30T09:38:26.714Z,71.02
2022-09-30T09:41:10.085Z,68.76
2022-09-30T09:44:03.937Z,69.65
2022-09-30T09:46:42.208Z,68.37
2022-09-30T09:52:24.047Z,70.74
2022-09-30T09:54:58.033Z,71.14
2022-09-30T09:57:35.474Z,70.60
2022-09-30T10:00:24.647Z,71.48
2022-09-30T10:03:04.366Z,70.76
2022-09-30T10:05:44.412Z,69.96
2022-09-30T10:08:19.629Z,70.62
2022-09-30T10:10:51.727Z,70.76
2022-09-30T10:13:21.740Z,73.90
2022-09-30T10:15:51.204Z,73.22
2022-09-30T10:18:36.502Z,73.10
2022-09-30T10:21:10.313Z,73.00
2022-09-30T10:23:39.490Z,73.41
2022-09-30T10:26:18.312Z,73.89
2022-09-30T10:28:48.119Z,73.02
2022-09-30T10:31:27.246Z,74.33
2022-09-30T10:33:58.310Z,73.85
2022-09-30T10:36:31.448Z,74.91
2022-09-30T10:39:09.390Z,74.19
2022-09-30T10:41:38.304Z,73.45
2022-09-30T10:44:13.574Z,74.02
2022-09-30T10:46:42.235Z,73.81
2022-09-30T10:49:12.318Z,72.75
2022-09-30T10:51:46.346Z,72.82
2022-09-30T10:54:34.139Z,71.90
2022-09-30T10:57:05.528Z,71.47
2022-09-30T10:59:38.744Z,70.43
2022-09-30T11:02:18.278Z,72.06
2022-09-30T11:04:53.538Z,72.59
2022-09-30T11:07:33.965Z,72.19
2022-09-30T11:10:07.039Z,71.14
2022-09-30T11:13:00.252Z,71.04
2022-09-30T11:15:33.705Z,70.16
2022-09-30T11:18:13.292Z,69.10
2022-09-30T11:20:47.586Z,68.39
2022-09-30T11:23:44.281Z,69.07
2022-09-30T11:26:38.387Z,69.01
2022-09-30T11:29:08.406Z,69.15
2022-09-30T11:31:39.093Z,70.02
2022-09-30T11:34:12.379Z,69.58
2022-09-30T11:36:50.984Z,68.62
2022-09-30T11:39:18.468Z,68.51
2022-09-30T11:41:53.965Z,67.60
2022-09-30T11:44:35.682Z,68.92
2022-09-30T11:47:03.658Z,68.92
2022-09-30T11:49:49.660Z,70.43
2022-09-30T11:52:40.245Z,69.73
2022-09-30T11:55:26.459Z,69.14
2022-09-30T11:58:12.032Z,69.61
2022-09-30T12:00:51.792Z,69.95
2022-09-30T12:03:23.257Z,67.68
2022-09-30T12:05:56.059Z,65.47
2022-09-30T12:11:36.570Z,67.44
2022-09-30T12:14:07.786Z,68.55
2022-09-30T12:16:35.851Z,68.39
2022-09-30T12:19:21.771Z,69.35
2022-09-30T12:22:12.401Z,68.63
2022-09-30T12:24:45.818Z,69.87
2022-09-30T12:27:50.424Z,69.89
2022-09-30T12:30:21.322Z,68.67
2022-09-30T12:32:49.060Z,68.67
2022-09-30T12:35:34.912Z,69.41
2022-09-30T12:38:05.585Z,69.71
2022-09-30T12:40:41.199Z,70.81
2022-09-30T12:43:14.859Z,70.86
2022-09-30T12:45:42.513Z,70.08
2022-09-30T12:48:17.176Z,70.38
2022-09-30T12:50:50.152Z,71.87
2022-09-30T12:53:19.954Z,71.23
2022-09-30T12:55:48.137Z,71.12
2022-09-30T12:58:21.473Z,71.69
2022-09-30T13:01:03.591Z,72.41
2022-09-30T13:03:43.724Z,71.50
2022-09-30T13:06:11.728Z,71.07
2022-09-30T13:08:47.878Z,70.26
2022-09-30T13:11:31.687Z,68.59
2022-09-30T13:14:03.551Z,64.94
2022-09-30T13:16:52.713Z,62.54
2022-09-30T13:19:21.703Z,62.02
2022-09-30T13:21:52.193Z,63.36
2022-09-30T13:24:19.825Z,65.18
2022-09-30T13:26:49.251Z,67.32
2022-09-30T13:29:17.137Z,69.53
2022-09-30T13:31:51.029Z,69.86
2022-09-30T13:34:23.384Z,70.17
2022-09-30T13:36:50.886Z,71.78
2022-09-30T13:39:28.018Z,71.00
2022-09-30T13:42:05.312Z,72.05
2022-09-30T13:44:38.549Z,72.26
2022-09-30T13:47:18.657Z,73.49
2022-09-30T13:50:03.181Z,74.01
2022-09-30T13:52:35.871Z,73.14
2022-09-30T13:55:23.996Z,72.50
2022-09-30T13:58:02.511Z,74.28
2022-09-30T14:00:51.427Z,73.68
2022-09-30T14:03:38.982Z,73.45
2022-09-30T14:06:09.811Z,72.97
2022-09-30T14:08:43.931Z,72.94
2022-09-30T14:11:30.258Z,73.94
2022-09-30T14:13:58.252Z,72.33
2022-09-30T14:16:25.854Z,74.56
2022-09-30T14:19:05.135Z,76.03
2022-09-30T14:21:50.801Z,75.80
2022-09-30T14:24:24.363Z,76.98
2022-09-30T14:27:04.284Z,76.77
2022-09-30T14:29:51.500Z,77.83
2022-09-30T14:32:41.307Z,76.34
2022-09-30T14:35:09.580Z,74.83
2022-09-30T14:37:46.116Z,77.00
2022-09-30T14:40:18.092Z,75.88
2022-09-30T14:42:48.316Z,76.81
2022-09-30T14:45:19.364Z,77.55
2022-09-30T14:47:49.390Z,79.10
2022-09-30T14:50:19.889Z,79.52
2022-09-30T14:52:49.518Z,78.05
2022-09-30T14:55:23.760Z,79.45
2022-09-30T14:57:52.335Z,78.91
2022-09-30T15:00:30.353Z,78.63
2022-09-30T15:02:59.490Z,80.52
2022-09-30T15:05:28.351Z,77.79
2022-09-30T15:07:56.082Z,80.56
2022-09-30T15:10:24.870Z,80.04
2022-09-30T15:12:53.467Z,85.41
2022-09-30T15:15:25.525Z,83.05
2022-09-30T15:17:55.778Z,85.32
2022-09-30T15:20:30.525Z,85.71
2022-09-30T15:23:01.389Z,88.04
2022-09-30T15:25:29.922Z,87.79
2022-09-30T15:27:57.998Z,88.52
2022-09-30T15:30:29.372Z,83.53
2022-09-30T15:33:01.479Z,82.87
2022-09-30T15:35:29.836Z,85.23
2022-09-30T15:38:07.812Z,86.24
2022-09-30T15:40:50.332Z,84.50
2022-09-30T15:43:32.826Z,83.55
2022-09-30T15:46:17.948Z,80.75
2022-09-30T15:48:46.213Z,82.63
2022-09-30T15:51:31.247Z,83.40
2022-09-30T15:54:00.781Z,84.90
2022-09-30T15:56:35.431Z,85.68
2022-09-30T15:59:04.967Z,86.35
2022-09-30T16:01:44.271Z,84.81
2022-09-30T16:04:24.707Z,86.55
2022-09-30T16:06:52.324Z,88.36
2022-09-30T16:09:22.539Z,87.32
2022-09-30T16:12:05.589Z,88.95
2022-09-30T16:14:35.787Z,87.05
2022-09-30T16:17:05.574Z,84.32
2022-09-30T16:19:33.591Z,86.61
2022-09-30T16:22:01.544Z,88.78
2022-09-30T16:24:29.293Z,86.54
2022-09-30T16:26:58.264Z,87.02
2022-09-30T16:29:26.711Z,89.58
2022-09-30T16:31:55.875Z,90.96
2022-09-30T16:34:23.892Z,91.18
2022-09-30T16:36:53.277Z,90.53
2022-09-30T16:39:21.459Z,91.68
2022-09-30T16:41:54.424Z,85.55
2022-09-30T16:44:23.736Z,84.77
2022-09-30T16:46:52.033Z,86.96
2022-09-30T16:49:20.086Z,87.77
2022-09-30T16:51:47.685Z,84.12
2022-09-30T16:54:15.818Z,89.62
2022-09-30T16:56:45.007Z,91.41
2022-09-30T16:59:16.863Z,92.05
2022-09-30T17:01:44.972Z,92.87
2022-09-30T17:04:15.263Z,92.82
2022-09-30T17:06:45.238Z,92.96
2022-09-30T17:09:12.835Z,93.01
2022-09-30T17:11:40.528Z,89.07
2022-09-30T17:14:08.488Z,90.13
2022-09-30T17:16:36.824Z,92.11
2022-09-30T17:19:04.983Z,92.86
2022-09-30T17:21:32.976Z,93.56
2022-09-30T17:24:04.933Z,91.14
2022-09-30T17:26:33.355Z,92.87
2022-09-30T17:31:49.373Z,92.50
2022-09-30T17:34:17.046Z,93.58
2022-09-30T17:36:44.556Z,92.32
2022-09-30T17:39:12.461Z,92.63
2022-09-30T17:41:58.547Z,91.40
2022-09-30T17:44:26.532Z,90.25
2022-09-30T17:47:00.582Z,91.09
2022-09-30T17:49:33.219Z,92.32
2022-09-30T17:52:00.929Z,92.19
2022-09-30T17:54:31.564Z,91.06
2022-09-30T17:56:59.415Z,91.62
2022-09-30T17:59:28.592Z,90.83
2022-09-30T18:01:59.876Z,87.06
2022-09-30T18:04:29.377Z,88.96
2022-09-30T18:06:57.392Z,88.80
2022-09-30T18:09:25.182Z,85.60
2022-09-30T18:11:53.638Z,84.58
2022-09-30T18:14:21.293Z,85.15
2022-09-30T18:16:48.977Z,87.34
2022-09-30T18:19:16.917Z,87.68
2022-09-30T18:21:44.500Z,83.92
2022-09-30T18:24:12.113Z,82.90
2022-09-30T18:26:40.334Z,82.55
2022-09-30T18:29:08.332Z,81.71
2022-09-30T18:31:37.740Z,80.52
2022-09-30T18:34:06.837Z,80.58
2022-09-30T18:36:34.511Z,80.08
2022-09-30T18:39:03.317Z,81.72
2022-09-30T18:41:35.319Z,81.58
2022-09-30T18:44:03.418Z,82.35
2022-09-30T18:46:31.965Z,81.47
2022-09-30T18:49:01.038Z,81.59
2022-09-30T18:51:29.922Z,80.75
2022-09-30T18:53:59.577Z,82.36
2022-09-30T18:56:32.437Z,81.22
2022-09-30T18:59:04.890Z,83.68
2022-09-30T19:01:34.363Z,87.74
2022-09-30T19:04:03.343Z,85.32
2022-09-30T19:09:17.176Z,85.64
2022-09-30T19:11:46.532Z,85.18
2022-09-30T19:14:14.800Z,84.22
2022-09-30T19:16:46.292Z,88.38
2022-09-30T19:19:13.868Z,88.56
2022-09-30T19:21:41.806Z,89.68
2022-09-30T19:24:09.659Z,91.19
2022-09-30T19:26:37.937Z,88.78
2022-09-30T19:29:08.036Z,87.40
2022-09-30T19:31:37.312Z,94.49
2022-09-30T19:34:05.610Z,95.96
2022-09-30T19:36:45.335Z,94.59
2022-09-30T19:39:16.927Z,94.65
2022-09-30T19:41:46.549Z,97.50
2022-09-30T19:44:19.131Z,91.80
2022-09-30T19:46:50.796Z,88.56
2022-09-30T19:49:23.768Z,91.32
2022-09-30T19:51:53.212Z,90.02
2022-09-30T19:54:37.767Z,94.08
2022-09-30T19:57:09.405Z,90.65
2022-09-30T19:59:36.998Z,92.59
2022-09-30T20:02:04.646Z,93.72
2022-09-30T20:04:34.499Z,94.97
2022-09-30T20:07:02.351Z,98.06
2022-09-30T20:09:30.936Z,96.44
2022-09-30T20:11:58.920Z,96.73
2022-09-30T20:14:47.276Z,96.98
2022-09-30T20:17:15.222Z,98.19
2022-09-30T20:19:42.731Z,97.84
2022-09-30T20:22:10.354Z,98.98
2022-09-30T20:24:39.226Z,100.00
2022-09-30T20:27:06.801Z,96.46
2022-09-30T20:29:34.313Z,98.62
2022-09-30T20:32:02.568Z,98.90
2022-09-30T20:34:30.280Z,99.91
2022-09-30T20:36:57.849Z,100.00
2022-09-30T20:39:44.937Z,100.00
2022-09-30T20:42:49.178Z,100.00
2022-09-30T20:45:32.513Z,100.00
2022-09-30T20:48:12.355Z,100.00
2022-09-30T20:50:59.100Z,100.00
2022-09-30T20:56:21.803Z,100.00
2022-09-30T20:58:49.885Z,100.00
2022-09-30T21:01:20.839Z,100.00
2022-09-30T21:03:52.660Z,100.00
2022-09-30T21:06:21.936Z,100.00
2022-09-30T21:08:51.186Z,100.00
2022-09-30T21:11:19.512Z,99.89
2022-09-30T21:13:50.817Z,99.66
2022-09-30T21:16:20.819Z,100.00
2022-09-30T21:18:50.412Z,99.87
2022-09-30T21:21:18.865Z,99.70
2022-09-30T21:23:46.721Z,99.93
2022-09-30T21:26:15.372Z,99.94
2022-09-30T21:28:48.214Z,100.00
2022-09-30T21:31:18.974Z,99.51
2022-09-30T21:33:50.399Z,99.65
2022-09-30T21:36:18.740Z,99.65
2022-09-30T21:38:46.179Z,99.27
2022-09-30T21:41:13.734Z,98.97
2022-09-30T21:43:41.677Z,100.00
2022-09-30T21:46:10.077Z,100.00
2022-09-30T21:48:38.029Z,100.00
2022-09-30T21:51:06.536Z,100.00
2022-09-30T21:53:34.437Z,100.00
2022-09-30T21:56:02.604Z,100.00
2022-09-30T21:58:31.913Z,100.00
2022-09-30T22:01:00.601Z,100.00
2022-09-30T22:03:29.559Z,100.00
2022-09-30T22:05:58.079Z,100.00
2022-09-30T22:08:26.755Z,99.99
2022-09-30T22:10:54.655Z,99.02
2022-09-30T22:13:22.219Z,99.53
2022-09-30T22:15:49.790Z,98.83
2022-09-30T22:18:18.917Z,98.42
2022-09-30T22:20:47.377Z,99.24
2022-09-30T22:23:15.327Z,98.83
2022-09-30T22:25:43.176Z,98.99
2022-09-30T22:28:10.721Z,99.79
2022-09-30T22:30:38.339Z,99.03
2022-09-30T22:33:24.637Z,97.84
2022-09-30T22:36:13.068Z,96.47
2022-09-30T22:38:40.952Z,98.58
2022-09-30T22:41:08.390Z,98.68
2022-09-30T22:43:38.904Z,96.20
2022-09-30T22:46:08.442Z,93.80
2022-09-30T22:48:37.281Z,92.86
2022-09-30T22:51:05.362Z,93.97
2022-09-30T22:53:34.178Z,93.79
2022-09-30T22:56:04.065Z,100.00
2022-09-30T22:58:31.530Z,99.57
2022-09-30T23:00:59.380Z,97.02
2022-09-30T23:03:26.936Z,99.45
2022-09-30T23:06:00.473Z,100.00
2022-09-30T23:08:33.605Z,99.82
2022-09-30T23:11:01.067Z,100.00
2022-09-30T23:13:30.513Z,98.79
2022-09-30T23:15:58.554Z,97.05
2022-09-30T23:18:26.647Z,95.00
2022-09-30T23:20:58.397Z,94.01
2022-09-30T23:23:26.127Z,90.00
2022-09-30T23:26:08.511Z,93.49
2022-09-30T23:28:36.091Z,95.29
2022-09-30T23:31:06.713Z,100.00
2022-09-30T23:33:35.058Z,100.00
2022-09-30T23:36:03.343Z,100.00
2022-09-30T23:38:31.369Z,99.39
2022-09-30T23:41:01.615Z,100.00
2022-09-30T23:43:31.396Z,98.64
2022-09-30T23:45:59.214Z,99.17
2022-09-30T23:48:27.071Z,96.85
2022-09-30T23:50:54.802Z,98.18
2022-09-30T23:53:23.278Z,97.34
2022-09-30T23:55:54.837Z,98.09
2022-09-30T23:58:23.649Z,94.28
